Time;durP1;ratioP1;P1;durP2;ratioP2;P2;SDS_P1;SDS_P2;PMS_P1;PMS_P2;Temp;Humidity;BMP_temperature;BMP_pressure;BME280_temperature;BME280_humidity;BME280_pressure;Samples;Min_cycle;Max_cycle;Signal;HPM_P1;HPM_P2
2022/03/25 00:02:22;;;;;;;6.15;3.88;;;11.20;47.00;;;;;;5010479;28;20180;-71
2022/03/25 00:04:47;;;;;;;5.88;4.45;;;11.20;47.10;;;;;;5015195;28;20706;-71
2022/03/25 00:07:13;;;;;;;6.50;4.23;;;11.10;46.80;;;;;;5019187;28;20261;-70
2022/03/25 00:09:39;;;;;;;4.40;4.00;;;11.20;46.80;;;;;;5010368;28;20181;-70
2022/03/25 00:12:05;;;;;;;5.70;3.83;;;11.20;46.80;;;;;;5014212;28;20551;-71
2022/03/25 00:14:31;;;;;;;5.07;4.50;;;11.20;46.60;;;;;;5012063;28;20188;-70
2022/03/25 00:16:56;;;;;;;6.10;3.97;;;11.20;46.60;;;;;;5016149;28;20559;-70
2022/03/25 00:19:22;;;;;;;3.53;3.38;;;11.20;46.60;;;;;;5013775;28;20188;-71
2022/03/25 00:21:48;;;;;;;9.30;4.25;;;11.30;46.50;;;;;;5010333;28;20181;-70
2022/03/25 00:24:13;;;;;;;4.60;4.20;;;11.30;46.50;;;;;;5018375;28;20599;-71
2022/03/25 00:26:39;;;;;;;4.18;3.95;;;11.30;46.30;;;;;;5016114;28;20303;-70
2022/03/25 00:29:05;;;;;;;3.45;3.28;;;11.30;46.50;;;;;;5016627;28;20260;-70
2022/03/25 00:31:30;;;;;;;3.90;3.53;;;11.30;46.20;;;;;;5013935;28;20187;-70
2022/03/25 00:33:56;;;;;;;7.23;3.90;;;11.30;46.30;;;;;;5016317;28;20188;-71
2022/03/25 00:36:23;;;;;;;6.28;4.25;;;11.30;46.30;;;;;;5010366;28;20671;-70
2022/03/25 00:38:49;;;;;;;4.47;4.07;;;11.30;46.50;;;;;;5010072;28;20181;-70
2022/03/25 00:41:17;;;;;;;6.57;3.97;;;11.30;46.50;;;;;;5008818;28;20188;-69
2022/03/25 00:43:46;;;;;;;4.57;3.95;;;11.30;46.50;;;;;;5012415;28;20220;-69
2022/03/25 00:46:12;;;;;;;4.30;3.95;;;11.30;46.50;;;;;;5010484;28;20177;-69
2022/03/25 00:48:39;;;;;;;6.07;3.25;;;11.30;46.50;;;;;;5007878;28;20279;-69
2022/03/25 00:51:05;;;;;;;3.67;3.47;;;11.30;46.50;;;;;;5009747;28;20188;-70
2022/03/25 00:53:31;;;;;;;5.17;4.13;;;11.40;46.30;;;;;;5012989;28;20253;-69
2022/03/25 00:55:57;;;;;;;4.80;3.78;;;11.40;46.40;;;;;;5013601;28;20180;-69
2022/03/25 00:58:23;;;;;;;4.70;3.55;;;11.40;46.40;;;;;;5013237;28;20181;-69
2022/03/25 01:00:49;;;;;;;4.10;3.80;;;11.40;46.40;;;;;;5011082;28;20687;-70
2022/03/25 01:03:15;;;;;;;4.00;3.57;;;11.40;46.40;;;;;;5008506;28;20215;-69
2022/03/25 01:05:41;;;;;;;3.63;3.33;;;11.30;46.60;;;;;;5013906;28;20712;-71
2022/03/25 01:08:09;;;;;;;4.75;3.58;;;11.30;46.60;;;;;;5011905;28;20195;-70
2022/03/25 01:10:36;;;;;;;6.50;3.43;;;11.30;46.60;;;;;;5006292;28;20665;-70
2022/03/25 01:13:03;;;;;;;7.30;4.05;;;11.20;46.80;;;;;;5018990;28;20195;-70
2022/03/25 01:15:29;;;;;;;3.87;3.50;;;11.20;46.80;;;;;;5013555;28;20186;-70
2022/03/25 01:17:55;;;;;;;4.13;3.33;;;11.10;46.80;;;;;;5014783;28;20674;-69
2022/03/25 01:20:20;;;;;;;3.33;3.13;;;11.10;46.80;;;;;;5014082;28;20243;-70
2022/03/25 01:22:46;;;;;;;6.30;4.17;;;11.10;47.00;;;;;;5012079;28;20220;-70
2022/03/25 01:25:12;;;;;;;4.10;3.80;;;11.00;46.90;;;;;;5008233;28;20180;-70
2022/03/25 01:27:38;;;;;;;4.60;3.60;;;11.00;47.00;;;;;;5013506;28;20184;-70
2022/03/25 01:30:04;;;;;;;4.75;3.65;;;11.00;47.00;;;;;;5020843;28;20176;-70
2022/03/25 01:32:30;;;;;;;3.83;3.40;;;11.00;47.00;;;;;;5015142;28;20211;-70
2022/03/25 01:34:56;;;;;;;5.47;3.90;;;11.00;46.90;;;;;;5017314;28;20585;-70
2022/03/25 01:37:23;;;;;;;3.73;3.43;;;11.00;47.10;;;;;;5019238;28;20203;-70
2022/03/25 01:39:49;;;;;;;3.87;3.57;;;10.90;47.00;;;;;;5012628;28;21856;-69
2022/03/25 01:42:15;;;;;;;12.80;3.97;;;10.90;47.10;;;;;;5020245;28;20184;-71
2022/03/25 01:44:41;;;;;;;4.27;3.37;;;10.90;47.00;;;;;;5013961;28;21915;-71
2022/03/25 01:47:08;;;;;;;4.43;2.90;;;10.90;47.00;;;;;;5021026;28;20191;-70
2022/03/25 01:49:35;;;;;;;4.00;3.63;;;10.90;47.00;;;;;;5020773;28;20270;-70
2022/03/25 01:52:02;;;;;;;3.83;3.50;;;10.90;47.00;;;;;;5020158;28;20203;-70
2022/03/25 01:54:30;;;;;;;5.07;3.73;;;10.90;47.10;;;;;;5017577;28;20188;-72
2022/03/25 01:57:08;;;;;;;5.97;3.70;;;10.90;47.10;;;;;;5019566;28;20187;-71
2022/03/25 01:59:34;;;;;;;4.50;4.20;;;10.90;47.00;;;;;;5021329;28;20191;-71
2022/03/25 02:02:02;;;;;;;3.57;3.33;;;10.90;47.00;;;;;;5017485;28;20185;-70
2022/03/25 02:04:28;;;;;;;10.17;4.63;;;10.80;47.10;;;;;;5019396;28;20220;-69
2022/03/25 02:06:54;;;;;;;4.47;3.87;;;10.80;47.20;;;;;;5021410;28;20199;-69
2022/03/25 02:09:20;;;;;;;4.73;4.10;;;10.70;47.40;;;;;;5023696;28;20650;-69
2022/03/25 02:11:45;;;;;;;4.60;3.67;;;10.70;47.50;;;;;;5023571;28;20310;-70
2022/03/25 02:14:12;;;;;;;4.00;3.63;;;10.60;47.50;;;;;;5017803;28;20189;-70
2022/03/25 02:16:40;;;;;;;5.30;4.13;;;10.60;47.60;;;;;;5018865;28;20202;-71
2022/03/25 02:19:08;;;;;;;4.37;3.83;;;10.60;47.60;;;;;;5018425;28;20188;-70
2022/03/25 02:21:37;;;;;;;4.17;3.87;;;10.50;47.60;;;;;;5015480;28;20645;-70
2022/03/25 02:24:03;;;;;;;6.83;3.83;;;10.50;47.70;;;;;;5015968;28;20287;-69
2022/03/25 02:26:29;;;;;;;5.80;3.40;;;10.50;47.60;;;;;;5017495;28;20335;-70
2022/03/25 02:28:55;;;;;;;4.53;3.87;;;10.40;47.70;;;;;;5019252;28;20954;-69
2022/03/25 02:31:22;;;;;;;5.33;3.80;;;10.40;47.80;;;;;;5021761;28;20191;-70
2022/03/25 02:33:48;;;;;;;5.57;3.87;;;10.40;47.90;;;;;;5014739;28;20177;-70
2022/03/25 02:36:13;;;;;;;4.23;3.70;;;10.40;48.00;;;;;;5015620;28;20183;-70
2022/03/25 02:38:39;;;;;;;4.97;3.47;;;10.30;47.90;;;;;;5020928;28;20188;-70
2022/03/25 02:41:05;;;;;;;5.63;3.70;;;10.30;48.20;;;;;;5012738;28;20189;-71
2022/03/25 02:43:30;;;;;;;4.70;3.87;;;10.20;48.10;;;;;;5014457;28;20215;-71
2022/03/25 02:45:56;;;;;;;4.70;4.20;;;10.20;48.10;;;;;;5017987;28;20192;-71
2022/03/25 02:48:22;;;;;;;6.03;4.00;;;10.20;48.50;;;;;;5012760;28;20798;-69
2022/03/25 02:50:48;;;;;;;4.47;4.07;;;10.10;48.70;;;;;;5008061;28;20189;-69
2022/03/25 02:53:15;;;;;;;9.17;4.07;;;10.00;48.70;;;;;;5019215;28;20211;-71
2022/03/25 02:55:42;;;;;;;5.10;4.27;;;10.00;48.60;;;;;;5017545;28;20276;-69
2022/03/25 02:58:08;;;;;;;4.73;3.90;;;10.00;48.70;;;;;;5015688;28;20292;-69
2022/03/25 03:00:34;;;;;;;3.80;3.43;;;10.00;49.00;;;;;;5013641;28;20952;-69
2022/03/25 03:03:02;;;;;;;5.93;4.30;;;9.90;48.90;;;;;;5013058;28;20638;-69
2022/03/25 03:05:29;;;;;;;6.57;4.13;;;9.90;49.20;;;;;;5032123;28;20197;-70
2022/03/25 03:07:55;;;;;;;8.00;3.80;;;9.80;49.10;;;;;;5019023;28;20220;-71
2022/03/25 03:10:21;;;;;;;5.67;4.20;;;9.80;49.30;;;;;;5016206;28;20196;-71
2022/03/25 03:12:47;;;;;;;4.33;3.90;;;9.80;49.10;;;;;;5016814;28;20184;-70
2022/03/25 03:15:15;;;;;;;4.33;4.03;;;9.80;49.20;;;;;;5008077;28;20597;-69
2022/03/25 03:17:41;;;;;;;4.43;3.73;;;9.80;49.30;;;;;;5011016;28;20172;-71
2022/03/25 03:20:08;;;;;;;4.53;3.60;;;9.70;48.90;;;;;;5013615;28;20184;-69
2022/03/25 03:22:34;;;;;;;4.40;4.00;;;9.80;49.00;;;;;;5015284;28;20184;-69
2022/03/25 03:25:00;;;;;;;3.17;2.97;;;9.80;48.60;;;;;;5010959;28;20247;-70
2022/03/25 03:27:27;;;;;;;4.40;4.00;;;9.80;48.30;;;;;;5012564;28;20188;-69
2022/03/25 03:29:53;;;;;;;3.13;2.93;;;9.80;48.60;;;;;;5008751;28;20185;-69
2022/03/25 03:32:19;;;;;;;8.13;3.80;;;9.70;48.50;;;;;;5014230;28;20581;-69
2022/03/25 03:34:44;;;;;;;4.43;4.03;;;9.70;48.70;;;;;;5013035;28;20180;-69
2022/03/25 03:37:10;;;;;;;5.83;4.40;;;9.60;48.90;;;;;;5015856;28;20189;-70
2022/03/25 03:39:36;;;;;;;8.83;4.27;;;9.60;48.80;;;;;;5015210;28;20188;-70
2022/03/25 03:42:03;;;;;;;4.30;3.67;;;9.50;48.80;;;;;;5005853;28;20215;-69
2022/03/25 03:44:29;;;;;;;4.27;3.93;;;9.50;48.90;;;;;;5006882;28;20216;-71
2022/03/25 03:46:56;;;;;;;8.00;3.93;;;9.40;48.90;;;;;;5011481;28;20205;-69
2022/03/25 03:49:22;;;;;;;5.70;3.80;;;9.40;49.50;;;;;;5008860;28;20220;-69
2022/03/25 03:51:48;;;;;;;4.00;3.80;;;9.30;49.30;;;;;;5019481;28;20180;-70
2022/03/25 03:54:13;;;;;;;10.60;5.00;;;9.30;49.90;;;;;;5012601;28;20661;-69
2022/03/25 03:56:39;;;;;;;4.70;4.20;;;9.30;49.90;;;;;;5014138;28;20235;-70
2022/03/25 03:59:05;;;;;;;4.47;3.57;;;9.30;49.60;;;;;;5010975;28;20193;-70
2022/03/25 04:01:30;;;;;;;8.90;4.23;;;9.20;49.90;;;;;;5009811;28;20239;-70
2022/03/25 04:03:56;;;;;;;4.63;3.67;;;9.20;49.80;;;;;;5016191;28;20694;-69
2022/03/25 04:06:22;;;;;;;6.13;4.73;;;9.20;50.00;;;;;;5012304;28;20192;-70
2022/03/25 04:08:49;;;;;;;5.03;4.13;;;9.10;49.80;;;;;;5007983;28;20206;-70
2022/03/25 04:11:15;;;;;;;4.53;3.90;;;9.10;50.20;;;;;;5012724;28;20180;-70
2022/03/25 04:13:43;;;;;;;8.63;4.47;;;9.10;50.60;;;;;;5011963;28;20219;-70
2022/03/25 04:16:10;;;;;;;12.30;4.63;;;9.00;50.50;;;;;;5008676;28;20196;-70
2022/03/25 04:18:36;;;;;;;5.70;4.30;;;9.00;50.50;;;;;;5012229;28;20177;-70
2022/03/25 04:21:02;;;;;;;4.73;4.00;;;9.00;50.40;;;;;;5011190;28;20193;-70
2022/03/25 04:23:28;;;;;;;8.23;4.77;;;8.90;50.20;;;;;;5012485;28;20595;-70
2022/03/25 04:25:53;;;;;;;6.33;4.37;;;8.90;50.30;;;;;;5009140;28;20181;-70
2022/03/25 04:28:19;;;;;;;5.43;4.53;;;8.90;50.60;;;;;;5011028;28;20180;-70
2022/03/25 04:30:45;;;;;;;5.03;4.40;;;8.80;50.60;;;;;;5012351;28;20181;-71
2022/03/25 04:33:11;;;;;;;5.33;4.03;;;8.80;51.10;;;;;;5013101;28;20689;-69
2022/03/25 04:35:37;;;;;;;4.93;4.53;;;8.80;51.20;;;;;;5008694;28;20234;-70
2022/03/25 04:38:03;;;;;;;10.00;4.90;;;8.70;51.20;;;;;;5012170;28;20208;-70
2022/03/25 04:40:30;;;;;;;11.77;5.57;;;8.70;51.60;;;;;;5014052;28;20740;-70
2022/03/25 04:42:58;;;;;;;7.33;5.00;;;8.70;51.70;;;;;;5009249;28;20694;-70
2022/03/25 04:45:25;;;;;;;5.10;4.50;;;8.70;51.50;;;;;;5008515;28;20330;-70
2022/03/25 04:47:51;;;;;;;4.93;4.40;;;8.70;51.70;;;;;;5006506;28;20682;-69
2022/03/25 04:50:17;;;;;;;6.67;4.97;;;8.70;51.70;;;;;;5012710;28;20181;-69
2022/03/25 04:52:44;;;;;;;6.53;4.90;;;8.60;51.70;;;;;;5012895;28;20279;-69
2022/03/25 04:55:11;;;;;;;6.93;5.17;;;8.70;52.00;;;;;;5007510;28;20193;-68
2022/03/25 04:57:40;;;;;;;6.97;4.20;;;8.70;52.20;;;;;;5012518;28;20246;-71
2022/03/25 05:00:07;;;;;;;14.33;5.73;;;8.70;51.60;;;;;;5006845;28;20181;-70
2022/03/25 05:02:34;;;;;;;10.43;4.77;;;8.70;51.90;;;;;;5006413;28;20199;-71
2022/03/25 05:05:00;;;;;;;6.77;4.73;;;8.70;52.00;;;;;;5010529;28;20770;-70
2022/03/25 05:07:26;;;;;;;4.90;4.50;;;8.60;52.70;;;;;;5027223;28;20238;-70
2022/03/25 05:09:52;;;;;;;4.90;4.50;;;8.60;52.50;;;;;;5017016;28;20191;-71
2022/03/25 05:12:18;;;;;;;8.43;4.50;;;8.60;52.70;;;;;;5016166;28;20192;-70
2022/03/25 05:14:44;;;;;;;8.23;4.97;;;8.70;52.40;;;;;;5015539;28;20572;-70
2022/03/25 05:17:10;;;;;;;7.83;5.03;;;8.70;51.90;;;;;;5009844;28;20189;-70
2022/03/25 05:19:36;;;;;;;6.87;4.50;;;8.80;51.70;;;;;;5008845;28;20192;-70
2022/03/25 05:22:02;;;;;;;7.50;4.57;;;8.80;51.50;;;;;;5014162;28;20185;-71
2022/03/25 05:24:27;;;;;;;5.70;4.67;;;8.90;51.30;;;;;;5011003;28;20721;-72
2022/03/25 05:26:54;;;;;;;8.77;4.53;;;8.90;51.40;;;;;;5007915;28;20189;-72
2022/03/25 05:29:20;;;;;;;8.23;5.27;;;9.00;51.40;;;;;;5011907;28;20185;-71
2022/03/25 05:31:46;;;;;;;19.13;5.27;;;9.00;51.30;;;;;;5011830;28;20393;-73
2022/03/25 05:34:12;;;;;;;6.47;4.80;;;9.10;51.40;;;;;;5007622;28;20184;-73
2022/03/25 05:36:38;;;;;;;8.13;5.13;;;9.10;51.20;;;;;;5010132;28;20185;-73
2022/03/25 05:39:04;;;;;;;6.77;4.93;;;9.20;51.10;;;;;;5023574;28;20675;-73
2022/03/25 05:41:31;;;;;;;9.13;4.10;;;9.30;50.90;;;;;;5009781;28;20599;-72
2022/03/25 05:43:57;;;;;;;6.67;4.90;;;9.40;50.70;;;;;;5016767;28;20590;-73
2022/03/25 05:46:23;;;;;;;5.33;4.47;;;9.60;50.70;;;;;;5009537;28;20178;-73
2022/03/25 05:48:49;;;;;;;4.57;4.17;;;9.70;50.10;;;;;;5006890;28;20181;-71
2022/03/25 05:51:15;;;;;;;9.57;5.27;;;9.90;50.10;;;;;;5007448;28;20238;-71
2022/03/25 05:53:41;;;;;;;5.53;4.37;;;10.00;50.00;;;;;;5007411;28;20200;-69
2022/03/25 05:56:08;;;;;;;6.97;4.83;;;10.20;49.60;;;;;;5013376;28;21089;-69
2022/03/25 05:58:35;;;;;;;5.10;4.70;;;10.30;49.60;;;;;;5007578;28;20213;-68
2022/03/25 06:01:02;;;;;;;7.97;5.87;;;10.40;49.40;;;;;;5009100;28;20236;-69
2022/03/25 06:03:28;;;;;;;6.17;5.00;;;10.50;49.80;;;;;;5012433;28;20219;-70
2022/03/25 06:05:54;;;;;;;9.40;5.10;;;10.60;49.30;;;;;;5013291;28;20191;-70
2022/03/25 06:08:20;;;;;;;5.73;5.00;;;10.60;49.40;;;;;;5015621;28;20222;-73
2022/03/25 06:10:46;;;;;;;5.77;4.90;;;10.70;49.30;;;;;;5008172;28;20745;-72
2022/03/25 06:13:12;;;;;;;5.53;4.77;;;10.80;48.90;;;;;;5013581;28;20202;-72
2022/03/25 06:15:38;;;;;;;10.53;5.70;;;10.90;48.70;;;;;;5013294;28;20601;-74
2022/03/25 06:18:03;;;;;;;8.23;5.20;;;11.00;48.60;;;;;;5013073;28;20266;-73
2022/03/25 06:20:29;;;;;;;5.63;5.00;;;11.00;48.50;;;;;;5017701;28;20679;-74
2022/03/25 06:22:56;;;;;;;5.50;5.05;;;11.10;48.40;;;;;;5017787;28;20204;-74
2022/03/25 06:25:23;;;;;;;8.17;5.33;;;11.20;48.30;;;;;;5017935;28;20180;-73
2022/03/25 06:27:50;;;;;;;8.13;5.37;;;11.30;47.60;;;;;;5015713;28;20185;-73
2022/03/25 06:30:17;;;;;;;5.20;4.77;;;11.40;47.50;;;;;;5013859;28;20192;-73
2022/03/25 06:32:43;;;;;;;5.50;5.00;;;11.50;47.50;;;;;;5012673;28;20192;-72
2022/03/25 06:35:09;;;;;;;6.43;5.33;;;11.60;47.40;;;;;;5013680;28;20241;-72
2022/03/25 06:37:36;;;;;;;6.80;4.83;;;11.70;47.00;;;;;;5014283;28;20182;-69
2022/03/25 06:40:05;;;;;;;8.35;5.95;;;11.70;46.80;;;;;;5011950;28;20200;-71
2022/03/25 06:42:31;;;;;;;6.30;5.70;;;11.80;46.70;;;;;;5010329;28;20184;-68
2022/03/25 06:44:57;;;;;;;7.68;5.88;;;11.80;46.50;;;;;;5004439;28;20220;-67
2022/03/25 06:47:23;;;;;;;6.38;5.30;;;11.80;46.40;;;;;;5005937;28;20291;-69
2022/03/25 06:49:48;;;;;;;7.35;5.70;;;11.90;46.50;;;;;;5010274;28;20212;-68
2022/03/25 06:52:15;;;;;;;6.75;6.10;;;12.00;46.50;;;;;;5015113;28;21011;-69
2022/03/25 06:54:40;;;;;;;8.50;6.80;;;12.00;46.40;;;;;;5013306;28;20248;-68
2022/03/25 06:57:07;;;;;;;9.77;6.03;;;12.10;46.50;;;;;;5011943;28;20212;-67
2022/03/25 06:59:33;;;;;;;8.60;7.13;;;12.20;46.50;;;;;;5016685;28;20462;-68
2022/03/25 07:01:59;;;;;;;9.85;6.35;;;12.20;46.40;;;;;;5005433;28;20292;-69
2022/03/25 07:04:24;;;;;;;13.32;7.25;;;12.20;46.30;;;;;;5007975;28;20217;-67
2022/03/25 07:06:55;;;;;;;8.65;6.93;;;12.20;46.30;;;;;;5012951;28;20198;-68
2022/03/25 07:09:21;;;;;;;10.45;6.80;;;12.30;46.20;;;;;;5006225;28;20606;-68
2022/03/25 07:11:47;;;;;;;9.43;6.97;;;12.30;46.30;;;;;;5011028;28;20195;-69
2022/03/25 07:14:13;;;;;;;7.95;6.40;;;12.40;46.50;;;;;;5010789;28;20698;-69
2022/03/25 07:16:42;;;;;;;11.35;7.18;;;12.50;46.20;;;;;;5017252;28;20250;-69
2022/03/25 07:19:09;;;;;;;7.60;6.88;;;12.50;46.20;;;;;;5019144;28;20271;-68
2022/03/25 07:21:35;;;;;;;9.80;6.78;;;12.50;46.20;;;;;;5006395;28;20180;-68
2022/03/25 07:24:01;;;;;;;10.70;7.68;;;12.50;46.30;;;;;;5010646;28;20208;-67
2022/03/25 07:26:27;;;;;;;10.88;7.65;;;12.50;46.20;;;;;;5014836;28;20188;-67
2022/03/25 07:28:53;;;;;;;20.13;6.72;;;12.50;46.40;;;;;;5006399;28;20728;-68
2022/03/25 07:31:18;;;;;;;10.35;7.28;;;12.50;46.30;;;;;;5009601;28;20181;-68
2022/03/25 07:33:44;;;;;;;10.75;7.13;;;12.50;46.40;;;;;;5007666;28;20189;-68
2022/03/25 07:36:11;;;;;;;13.00;6.90;;;12.60;46.60;;;;;;5013228;28;20181;-68
2022/03/25 07:38:37;;;;;;;10.73;7.20;;;12.70;46.60;;;;;;5011130;28;20831;-68
2022/03/25 07:41:03;;;;;;;14.25;8.25;;;12.90;46.30;;;;;;5012123;28;20262;-68
2022/03/25 07:43:30;;;;;;;9.85;7.25;;;13.00;46.50;;;;;;5022124;28;20204;-67
2022/03/25 07:45:56;;;;;;;10.90;7.07;;;13.00;46.00;;;;;;5005127;28;20219;-68
2022/03/25 07:48:22;;;;;;;13.30;7.75;;;13.10;46.10;;;;;;5011789;28;20265;-69
2022/03/25 07:50:48;;;;;;;8.82;7.03;;;13.30;46.00;;;;;;5009910;28;20180;-68
2022/03/25 07:53:14;;;;;;;11.05;7.47;;;13.30;45.80;;;;;;5013995;28;20188;-69
2022/03/25 07:55:40;;;;;;;10.35;7.35;;;13.50;45.90;;;;;;5011258;28;20210;-69
2022/03/25 07:58:06;;;;;;;11.50;6.95;;;13.50;45.50;;;;;;5014717;28;20185;-69
2022/03/25 08:00:32;;;;;;;15.55;7.75;;;13.60;45.30;;;;;;5011884;28;20621;-68
2022/03/25 08:02:58;;;;;;;13.55;7.50;;;13.80;45.60;;;;;;5011560;28;20177;-68
2022/03/25 08:05:23;;;;;;;14.13;7.20;;;13.80;45.20;;;;;;5011253;28;20654;-67
2022/03/25 08:07:54;;;;;;;11.77;7.25;;;13.90;45.10;;;;;;5002391;28;20280;-67
2022/03/25 08:10:24;;;;;;;10.50;6.90;;;14.00;44.90;;;;;;5010494;28;20180;-68
2022/03/25 08:12:51;;;;;;;17.65;7.38;;;14.00;44.90;;;;;;5002093;28;20615;-68
2022/03/25 08:15:18;;;;;;;11.88;6.97;;;14.20;46.30;;;;;;5004438;28;20181;-69
2022/03/25 08:17:57;;;;;;;11.68;7.88;;;14.20;45.50;;;;;;5003532;28;20184;-69
2022/03/25 08:20:35;;;;;;;22.20;7.03;;;14.10;44.50;;;;;;5000445;28;20247;-69
2022/03/25 08:23:02;;;;;;;9.77;7.13;;;14.20;44.30;;;;;;5011906;28;20554;-69
2022/03/25 08:28:14;;;;;;;10.45;6.90;;;14.40;44.40;;;;;;5010971;28;20199;-69
2022/03/25 08:30:41;;;;;;;8.02;6.32;;;14.70;44.30;;;;;;5014946;28;20286;-68
2022/03/25 08:33:07;;;;;;;10.02;6.75;;;15.10;43.60;;;;;;5028665;28;20334;-69
2022/03/25 08:35:33;;;;;;;9.70;7.40;;;15.40;43.20;;;;;;5007201;28;20682;-68
2022/03/25 08:37:59;;;;;;;11.15;7.75;;;15.60;42.90;;;;;;5006974;28;20780;-69
2022/03/25 08:40:27;;;;;;;10.07;7.20;;;16.00;42.70;;;;;;5014186;28;21762;-69
2022/03/25 08:42:53;;;;;;;12.18;7.03;;;16.50;42.70;;;;;;5010757;28;20184;-69
2022/03/25 08:45:19;;;;;;;8.23;6.80;;;17.00;42.30;;;;;;5019312;28;20493;-69
2022/03/25 08:47:46;;;;;;;12.32;7.65;;;17.40;41.20;;;;;;5014452;28;20255;-69
2022/03/25 08:50:12;;;;;;;9.30;7.03;;;17.30;41.00;;;;;;5010749;28;20192;-69
2022/03/25 08:52:42;;;;;;;9.85;7.55;;;17.20;41.00;;;;;;5011679;28;20192;-70
2022/03/25 08:55:12;;;;;;;11.52;6.60;;;17.50;41.00;;;;;;5013416;28;20188;-70
2022/03/25 08:57:38;;;;;;;7.85;6.68;;;17.90;40.60;;;;;;5013850;28;20886;-70
2022/03/25 09:00:08;;;;;;;9.60;6.43;;;18.40;40.30;;;;;;5009836;28;20700;-69
2022/03/25 09:02:34;;;;;;;14.93;6.82;;;18.70;40.30;;;;;;5007525;28;20184;-71
2022/03/25 09:04:59;;;;;;;18.50;8.07;;;18.90;39.40;;;;;;5009229;28;20215;-71
2022/03/25 09:07:25;;;;;;;11.13;7.18;;;18.80;39.50;;;;;;5001289;28;20197;-70
2022/03/25 09:09:51;;;;;;;11.45;6.85;;;18.60;39.30;;;;;;5004565;28;20620;-70
2022/03/25 09:12:16;;;;;;;9.32;6.88;;;18.70;39.60;;;;;;5003639;28;20203;-70
2022/03/25 09:14:42;;;;;;;14.77;6.75;;;18.80;39.30;;;;;;5006867;28;20181;-70
2022/03/25 09:17:09;;;;;;;10.25;6.53;;;18.90;38.90;;;;;;5005224;28;20572;-69
2022/03/25 09:19:34;;;;;;;8.98;6.38;;;18.90;39.20;;;;;;5003094;28;20295;-69
2022/03/25 09:22:00;;;;;;;10.73;6.65;;;19.10;39.20;;;;;;5007725;28;20189;-70
2022/03/25 09:24:26;;;;;;;10.85;5.97;;;19.20;38.80;;;;;;5009946;28;20219;-71
2022/03/25 09:26:51;;;;;;;7.80;6.65;;;19.30;38.70;;;;;;5016060;28;20258;-69
2022/03/25 09:29:17;;;;;;;9.68;6.10;;;19.30;38.70;;;;;;5008443;28;22047;-70
2022/03/25 09:31:43;;;;;;;10.55;6.82;;;19.50;38.70;;;;;;5011029;28;20259;-70
2022/03/25 09:36:54;;;;;;;6.10;5.50;;;20.10;38.40;;;;;;5012285;28;20210;-72
2022/03/25 09:39:20;;;;;;;6.10;5.40;;;20.60;37.90;;;;;;5022445;28;20169;-74
2022/03/25 09:41:46;;;;;;;6.97;5.82;;;21.00;37.60;;;;;;5006781;28;20284;-72
2022/03/25 09:44:15;;;;;;;6.03;5.43;;;21.10;37.40;;;;;;5009747;28;20283;-72
2022/03/25 09:46:42;;;;;;;6.18;5.65;;;21.50;37.40;;;;;;5012578;28;20249;-72
2022/03/25 09:49:09;;;;;;;7.57;5.78;;;22.00;37.40;;;;;;5013547;28;20185;-72
2022/03/25 09:51:36;;;;;;;6.10;5.43;;;22.10;36.40;;;;;;5013672;28;20560;-72
2022/03/25 09:54:02;;;;;;;8.55;5.75;;;22.00;36.00;;;;;;5009703;28;20201;-72
2022/03/25 09:56:28;;;;;;;10.02;5.70;;;21.90;36.10;;;;;;5007646;28;20315;-72
2022/03/25 09:58:54;;;;;;;5.57;4.93;;;21.80;36.40;;;;;;5018673;28;20232;-71
2022/03/25 10:01:20;;;;;;;7.65;5.28;;;22.00;36.10;;;;;;5014265;28;20265;-70
2022/03/25 10:03:46;;;;;;;9.13;5.43;;;22.50;36.40;;;;;;5015564;28;20189;-70
2022/03/25 10:06:14;;;;;;;6.50;5.30;;;23.00;35.10;;;;;;5011163;28;20700;-69
2022/03/25 10:08:40;;;;;;;5.60;5.10;;;23.10;34.70;;;;;;5018657;28;20172;-70
2022/03/25 10:11:25;;;;;;;8.18;5.70;;;23.30;34.90;;;;;;5018696;28;20211;-71
2022/03/25 10:14:19;;;;;;;5.45;4.97;;;23.70;34.20;;;;;;5016548;28;20205;-71
2022/03/25 10:16:49;;;;;;;6.97;5.05;;;23.90;34.00;;;;;;5019819;28;20579;-71
2022/03/25 10:19:19;;;;;;;6.35;4.47;;;23.70;33.60;;;;;;5014751;28;20209;-70
2022/03/25 10:21:57;;;;;;;5.10;4.60;;;23.60;33.80;;;;;;5014247;28;20242;-71
2022/03/25 10:24:37;;;;;;;6.97;4.85;;;24.10;34.60;;;;;;5009933;28;20239;-71
2022/03/25 10:27:04;;;;;;;5.15;4.72;;;24.50;33.70;;;;;;5007551;28;20184;-71
2022/03/25 10:29:30;;;;;;;5.25;4.82;;;24.40;33.50;;;;;;5011292;28;20215;-70
2022/03/25 10:32:18;;;;;;;17.33;4.93;;;24.20;33.20;;;;;;5008686;28;20636;-71
2022/03/25 10:34:44;;;;;;;4.90;4.40;;;24.30;33.30;;;;;;5009260;28;20227;-70
2022/03/25 10:37:12;;;;;;;9.38;5.03;;;24.40;33.00;;;;;;5013965;28;20219;-70
2022/03/25 10:39:39;;;;;;;4.95;4.55;;;24.20;33.40;;;;;;5016423;28;20192;-71
2022/03/25 10:42:08;;;;;;;4.60;4.22;;;24.20;33.20;;;;;;5012511;28;20398;-70
2022/03/25 10:44:41;;;;;;;7.10;4.57;;;24.20;33.30;;;;;;5007418;28;20267;-71
2022/03/25 10:47:16;;;;;;;5.15;4.60;;;24.20;33.00;;;;;;5009184;28;20203;-70
2022/03/25 10:49:46;;;;;;;7.63;4.25;;;23.10;33.30;;;;;;5013056;28;20191;-70
2022/03/25 10:52:30;;;;;;;5.38;4.70;;;22.80;34.30;;;;;;5008693;28;20262;-70
2022/03/25 10:55:13;;;;;;;4.97;4.53;;;23.40;34.20;;;;;;5014554;28;20255;-71
2022/03/25 10:57:52;;;;;;;4.18;3.85;;;23.60;33.00;;;;;;5009614;28;20204;-71
2022/03/25 11:00:19;;;;;;;4.07;3.78;;;23.90;34.40;;;;;;5012801;28;20184;-70
2022/03/25 11:02:45;;;;;;;4.60;4.20;;;24.30;33.10;;;;;;5009258;28;20631;-69
2022/03/25 11:05:13;;;;;;;4.65;4.18;;;24.60;33.10;;;;;;5010341;28;20668;-70
2022/03/25 11:07:42;;;;;;;4.97;4.63;;;24.80;32.30;;;;;;5011664;28;20189;-69
2022/03/25 11:10:12;;;;;;;7.93;3.58;;;24.50;32.70;;;;;;5015096;28;20180;-70
2022/03/25 11:12:42;;;;;;;5.13;4.53;;;24.40;32.90;;;;;;5006448;28;20933;-69
2022/03/25 11:15:17;;;;;;;6.65;4.60;;;24.40;32.80;;;;;;5010218;28;20231;-68
2022/03/25 11:17:44;;;;;;;4.53;4.10;;;24.30;32.90;;;;;;5011378;28;20188;-70
2022/03/25 11:20:12;;;;;;;5.13;4.28;;;24.20;33.50;;;;;;5005679;28;20574;-71
2022/03/25 11:23:17;;;;;;;5.75;4.55;;;24.40;32.70;;;;;;5015591;28;20895;-70
2022/03/25 11:25:46;;;;;;;8.55;3.97;;;24.60;32.70;;;;;;5012325;28;20916;-70
2022/03/25 11:28:19;;;;;;;4.18;3.97;;;24.70;32.70;;;;;;5005046;28;20192;-73
2022/03/25 11:30:45;;;;;;;5.80;4.07;;;24.50;32.50;;;;;;5006235;28;20196;-72
2022/03/25 11:33:12;;;;;;;4.20;3.88;;;24.10;32.80;;;;;;5005459;28;20188;-72
2022/03/25 11:35:41;;;;;;;6.40;3.72;;;24.00;32.70;;;;;;5014007;28;20638;-71
2022/03/25 11:38:18;;;;;;;5.72;4.40;;;23.60;33.80;;;;;;5013520;28;20192;-71
2022/03/25 11:40:46;;;;;;;8.00;3.80;;;23.40;33.40;;;;;;5009863;28;21032;-70
2022/03/25 11:43:15;;;;;;;4.00;3.70;;;23.50;33.60;;;;;;5011979;28;20208;-72
2022/03/25 11:45:41;;;;;;;5.70;4.30;;;23.50;33.20;;;;;;4994717;28;20215;-71
2022/03/25 11:48:08;;;;;;;4.13;3.72;;;23.60;33.30;;;;;;5015882;28;20694;-71
2022/03/25 11:50:48;;;;;;;4.20;3.60;;;23.90;33.10;;;;;;5013382;28;20327;-73
2022/03/25 11:53:13;;;;;;;4.45;3.42;;;23.70;32.90;;;;;;5026400;28;20184;-72
2022/03/25 11:56:02;;;;;;;3.92;3.55;;;23.60;33.50;;;;;;5009259;28;20211;-73
2022/03/25 11:58:30;;;;;;;4.07;3.78;;;23.50;32.90;;;;;;5006618;28;20196;-73
2022/03/25 12:01:07;;;;;;;4.50;3.63;;;23.40;33.00;;;;;;5005626;28;20636;-71
2022/03/25 12:03:49;;;;;;;3.92;3.63;;;23.20;32.70;;;;;;5013799;28;20841;-69
2022/03/25 12:06:24;;;;;;;5.43;3.30;;;22.90;32.70;;;;;;5011122;28;20201;-68
2022/03/25 12:09:01;;;;;;;8.27;3.78;;;22.40;32.90;;;;;;5011820;28;20188;-70
2022/03/25 12:11:56;;;;;;;3.35;3.15;;;22.30;33.60;;;;;;5006532;28;20222;-69
2022/03/25 12:14:31;;;;;;;6.75;3.53;;;22.70;33.30;;;;;;5015349;28;20212;-70
2022/03/25 12:17:08;;;;;;;8.05;3.35;;;23.10;33.50;;;;;;5012111;28;20597;-71
2022/03/25 12:19:41;;;;;;;3.53;3.33;;;23.50;32.30;;;;;;5010274;28;20184;-68
2022/03/25 12:22:19;;;;;;;5.82;2.95;;;23.90;33.00;;;;;;5014220;28;20187;-70
2022/03/25 12:24:46;;;;;;;11.50;2.67;;;23.80;31.70;;;;;;5014069;28;20181;-68
2022/03/25 12:27:12;;;;;;;8.68;2.75;;;23.90;31.80;;;;;;5009670;28;20184;-69
2022/03/25 12:29:40;;;;;;;3.35;3.10;;;23.80;31.50;;;;;;5009024;28;20185;-68
2022/03/25 12:32:08;;;;;;;2.83;2.63;;;23.70;31.90;;;;;;5012373;28;20189;-68
2022/03/25 12:35:03;;;;;;;2.47;2.35;;;23.70;31.60;;;;;;5012854;28;20212;-68
2022/03/25 12:37:34;;;;;;;4.07;1.92;;;24.00;31.60;;;;;;5008985;28;20358;-68
2022/03/25 12:40:26;;;;;;;2.42;2.28;;;24.10;31.20;;;;;;5008646;28;20278;-68
2022/03/25 12:43:08;;;;;;;5.00;2.30;;;24.00;30.80;;;;;;5008457;28;20854;-68
2022/03/25 12:45:48;;;;;;;2.65;2.45;;;23.70;30.50;;;;;;5009659;28;20181;-69
2022/03/25 12:48:17;;;;;;;2.45;2.30;;;23.10;30.60;;;;;;5015008;28;20180;-67
2022/03/25 12:50:51;;;;;;;2.67;2.47;;;22.90;30.80;;;;;;5012229;28;20584;-68
2022/03/25 12:53:26;;;;;;;3.50;2.35;;;22.60;30.90;;;;;;5004636;28;20183;-68
2022/03/25 12:55:52;;;;;;;6.05;2.60;;;23.00;31.40;;;;;;5005255;28;20187;-68
2022/03/25 12:58:21;;;;;;;4.85;2.75;;;23.50;30.40;;;;;;5008708;28;20820;-68